Time;durP1;ratioP1;P1;durP2;ratioP2;P2;SDS_P1;SDS_P2;PMS_P1;PMS_P2;Temp;Humidity;BMP_temperature;BMP_pressure;BME280_temperature;BME280_humidity;BME280_pressure;Samples;Min_cycle;Max_cycle;Signal;HPM_P1;HPM_P2
2023/09/13 00:02:27;;;;;;;;;;;;;;;20.53;100.00;101213.53;20860817;28;20310;-60
2023/09/13 00:12:48;;;;;;;;;;;;;;;20.42;100.00;101187.09;20860649;28;19929;-60
2023/09/13 00:23:10;;;;;;;;;;;;;;;20.30;100.00;101174.75;20850391;28;19993;-60
2023/09/13 00:33:32;;;;;;;;;;;;;;;20.27;100.00;101180.22;20846816;28;20309;-60
2023/09/13 00:43:54;;;;;;;;;;;;;;;20.27;100.00;101177.59;20842219;28;19967;-60
2023/09/13 00:54:15;;;;;;;;;;;;;;;20.24;100.00;101176.91;20852370;28;20169;-60
2023/09/13 01:04:37;;;;;;;;;;;;;;;20.22;100.00;101181.44;20828485;28;19928;-60
2023/09/13 01:15:00;;;;;;;;;;;;;;;20.18;100.00;101199.16;20849181;28;20310;-60
2023/09/13 01:25:21;;;;;;;;;;;;;;;20.15;100.00;101209.84;20850817;28;20405;-60
2023/09/13 01:35:43;;;;;;;;;;;;;;;20.10;100.00;101211.09;20844738;28;20019;-60
2023/09/13 01:46:05;;;;;;;;;;;;;;;20.02;100.00;101216.81;20831900;28;19944;-60
2023/09/13 01:56:26;;;;;;;;;;;;;;;19.89;100.00;101216.75;20837096;28;19931;-60
2023/09/13 02:06:48;;;;;;;;;;;;;;;19.90;100.00;101220.22;20847613;28;19932;-61
2023/09/13 02:17:09;;;;;;;;;;;;;;;19.87;100.00;101217.78;20841166;28;20022;-60
2023/09/13 02:27:32;;;;;;;;;;;;;;;19.76;100.00;101217.63;20847737;28;19928;-60
2023/09/13 02:37:55;;;;;;;;;;;;;;;19.56;100.00;101204.84;20845971;28;19925;-60
2023/09/13 02:48:16;;;;;;;;;;;;;;;19.46;100.00;101216.84;20832002;28;19931;-60
2023/09/13 02:58:38;;;;;;;;;;;;;;;19.34;100.00;101231.56;20834041;28;20405;-60
2023/09/13 03:08:59;;;;;;;;;;;;;;;19.25;100.00;101236.47;20830014;28;20479;-61
2023/09/13 03:19:21;;;;;;;;;;;;;;;19.22;100.00;101236.66;20832244;28;19933;-61
2023/09/13 03:29:42;;;;;;;;;;;;;;;19.06;100.00;101245.44;20828159;28;20018;-60
2023/09/13 03:40:05;;;;;;;;;;;;;;;18.86;100.00;101256.22;20831336;28;19925;-60
2023/09/13 03:50:27;;;;;;;;;;;;;;;18.72;100.00;101257.94;20824964;28;19929;-60
2023/09/13 04:00:48;;;;;;;;;;;;;;;18.65;100.00;101261.84;20832388;28;20561;-60
2023/09/13 04:11:10;;;;;;;;;;;;;;;18.48;100.00;101260.16;20831504;28;20390;-60
2023/09/13 04:21:31;;;;;;;;;;;;;;;18.40;100.00;101266.75;20841705;28;20388;-61
2023/09/13 04:31:52;;;;;;;;;;;;;;;18.32;100.00;101267.16;20851718;28;19933;-61
2023/09/13 04:42:14;;;;;;;;;;;;;;;18.17;100.00;101260.13;20847140;28;20038;-61
2023/09/13 04:52:36;;;;;;;;;;;;;;;18.00;100.00;101273.31;20859605;28;20389;-61
2023/09/13 05:02:57;;;;;;;;;;;;;;;17.90;100.00;101288.66;20837948;28;19935;-60
2023/09/13 05:13:19;;;;;;;;;;;;;;;17.81;100.00;101314.47;20851760;28;19940;-60
2023/09/13 05:23:40;;;;;;;;;;;;;;;17.74;100.00;101315.72;20851970;28;19925;-60
2023/09/13 05:34:01;;;;;;;;;;;;;;;17.72;100.00;101313.19;20833400;28;19940;-61
2023/09/13 05:44:24;;;;;;;;;;;;;;;17.69;100.00;101325.59;20839686;28;19982;-60
2023/09/13 05:54:46;;;;;;;;;;;;;;;17.43;100.00;101344.34;20827798;28;19925;-61
2023/09/13 06:05:09;;;;;;;;;;;;;;;17.23;99.74;101370.66;20815228;28;20067;-60
2023/09/13 06:15:30;;;;;;;;;;;;;;;16.81;95.24;101384.84;20844302;28;20459;-60
2023/09/13 06:25:52;;;;;;;;;;;;;;;16.60;94.68;101392.84;20848399;28;19929;-60
2023/09/13 06:36:13;;;;;;;;;;;;;;;16.55;95.90;101410.50;20830826;28;20358;-61
2023/09/13 06:46:36;;;;;;;;;;;;;;;16.42;93.96;101425.84;20826611;28;20389;-61
2023/09/13 06:56:58;;;;;;;;;;;;;;;16.45;93.37;101424.84;20821188;28;19958;-61
2023/09/13 07:07:23;;;;;;;;;;;;;;;16.46;92.80;101453.53;20817755;28;19925;-61
2023/09/13 07:17:44;;;;;;;;;;;;;;;16.45;91.46;101467.50;20818581;28;19925;-61
2023/09/13 07:28:06;;;;;;;;;;;;;;;16.47;91.07;101484.00;20811177;28;19937;-61
2023/09/13 07:38:27;;;;;;;;;;;;;;;16.54;91.06;101503.72;20827695;28;19940;-60
2023/09/13 07:48:49;;;;;;;;;;;;;;;16.64;90.00;101517.22;20812594;28;19925;-61
2023/09/13 07:59:14;;;;;;;;;;;;;;;16.78;89.25;101520.06;20805741;28;19943;-61
2023/09/13 08:09:36;;;;;;;;;;;;;;;16.80;87.84;101575.75;20822975;28;19935;-61
2023/09/13 08:19:57;;;;;;;;;;;;;;;16.83;90.72;101600.00;20848357;23;19928;-61
2023/09/13 08:30:19;;;;;;;;;;;;;;;16.68;93.41;101616.34;20823105;28;20011;-61
2023/09/13 08:40:44;;;;;;;;;;;;;;;16.40;98.18;101615.78;20843037;28;19928;-60
2023/09/13 08:51:06;;;;;;;;;;;;;;;16.30;100.00;101635.34;20860089;28;20016;-60
2023/09/13 09:01:28;;;;;;;;;;;;;;;16.15;100.00;101635.97;20866199;28;20262;-60
2023/09/13 09:11:52;;;;;;;;;;;;;;;16.19;100.00;101627.09;20861894;28;19932;-60
2023/09/13 09:22:16;;;;;;;;;;;;;;;16.30;100.00;101627.50;20838562;28;20012;-61
2023/09/13 09:32:38;;;;;;;;;;;;;;;16.38;100.00;101648.94;20828646;28;19931;-61
2023/09/13 09:42:59;;;;;;;;;;;;;;;16.49;100.00;101652.00;20832035;28;19937;-61
2023/09/13 09:53:22;;;;;;;;;;;;;;;16.69;100.00;101670.31;20846386;28;20302;-59
2023/09/13 10:03:44;;;;;;;;;;;;;;;16.53;99.07;101671.88;20829057;28;19939;-59
2023/09/13 10:14:05;;;;;;;;;;;;;;;16.45;100.00;101692.19;20843296;28;19933;-59
2023/09/13 10:24:37;;;;;;;;;;;;;;;16.24;98.53;101708.75;20823654;28;19984;-61
2023/09/13 10:35:00;;;;;;;;;;;;;;;16.34;98.95;101740.56;20827902;28;19961;-60
2023/09/13 10:45:22;;;;;;;;;;;;;;;16.26;93.54;101746.06;20829494;28;19928;-61
2023/09/13 10:55:45;;;;;;;;;;;;;;;16.41;94.83;101755.94;20844315;28;20162;-61
2023/09/13 11:06:08;;;;;;;;;;;;;;;16.59;94.55;101767.47;20823725;28;20058;-60
2023/09/13 11:16:29;;;;;;;;;;;;;;;16.74;93.10;101780.78;20837765;28;19932;-61
2023/09/13 11:26:54;;;;;;;;;;;;;;;17.01;88.25;101812.81;20855391;28;19933;-61
2023/09/13 11:37:15;;;;;;;;;;;;;;;17.02;86.81;101825.81;20815603;28;19933;-61
2023/09/13 11:47:37;;;;;;;;;;;;;;;17.01;85.55;101834.56;20856396;28;19929;-61
2023/09/13 11:58:02;;;;;;;;;;;;;;;17.05;82.61;101845.75;20844344;28;19932;-60
2023/09/13 12:08:37;;;;;;;;;;;;;;;17.28;79.44;101844.81;20847439;28;20018;-61
2023/09/13 12:18:59;;;;;;;;;;;;;;;17.29;81.84;101876.16;20843915;28;19940;-61
2023/09/13 12:29:24;;;;;;;;;;;;;;;17.07;82.50;101885.78;20838741;28;20368;-61
2023/09/13 12:39:45;;;;;;;;;;;;;;;16.87;84.31;101901.41;20859249;28;20344;-61
2023/09/13 12:50:07;;;;;;;;;;;;;;;16.93;88.32;101901.16;20837824;28;19933;-61
2023/09/13 13:00:49;;;;;;;;;;;;;;;16.94;88.88;101885.41;20840307;28;19960;-62
2023/09/13 13:11:11;;;;;;;;;;;;;;;17.00;86.51;101887.78;20870321;28;19925;-61
2023/09/13 13:21:33;;;;;;;;;;;;;;;17.21;85.65;101880.00;20849262;28;20309;-61
2023/09/13 13:32:01;;;;;;;;;;;;;;;17.31;86.29;101890.03;20861774;28;19932;-61
2023/09/13 13:42:22;;;;;;;;;;;;;;;17.60;86.37;101899.34;20852494;28;20363;-61
2023/09/13 13:52:44;;;;;;;;;;;;;;;17.74;87.58;101900.47;20860220;28;20063;-61
2023/09/13 14:03:05;;;;;;;;;;;;;;;17.87;85.29;101903.41;20846731;28;20409;-61
2023/09/13 14:13:27;;;;;;;;;;;;;;;18.22;82.32;101907.94;20844406;28;20292;-61
2023/09/13 14:23:49;;;;;;;;;;;;;;;18.35;83.49;101924.00;20845868;28;20011;-61
2023/09/13 14:34:11;;;;;;;;;;;;;;;18.20;81.31;101930.78;20842159;28;20801;-61
2023/09/13 14:44:33;;;;;;;;;;;;;;;18.22;77.67;101928.91;20847338;28;19932;-61
2023/09/13 14:54:55;;;;;;;;;;;;;;;18.31;76.12;101939.00;20831478;28;19933;-63
2023/09/13 15:05:18;;;;;;;;;;;;;;;18.27;74.70;101942.69;20834391;28;19936;-60
2023/09/13 15:15:45;;;;;;;;;;;;;;;18.11;77.41;101946.88;20840157;28;20596;-62
2023/09/13 15:26:06;;;;;;;;;;;;;;;18.13;77.04;101958.13;20833429;28;19925;-61
2023/09/13 15:36:28;;;;;;;;;;;;;;;18.35;75.99;101964.13;20856323;28;19936;-60
2023/09/13 15:46:49;;;;;;;;;;;;;;;18.57;73.66;101974.59;20838955;28;20426;-62
2023/09/13 15:57:15;;;;;;;;;;;;;;;18.60;73.31;101983.16;20831323;28;20010;-61
2023/09/13 16:07:37;;;;;;;;;;;;;;;18.84;71.84;101997.78;20808693;28;20037;-62
2023/09/13 16:18:02;;;;;;;;;;;;;;;19.05;67.67;102004.66;20856538;28;20020;-61
2023/09/13 16:28:24;;;;;;;;;;;;;;;18.87;68.24;102002.91;20856736;28;20297;-62
2023/09/13 16:38:45;;;;;;;;;;;;;;;18.72;70.78;102024.56;20843945;28;19933;-62
2023/09/13 16:49:08;;;;;;;;;;;;;;;18.44;72.31;102018.81;20853128;28;19995;-62
2023/09/13 16:59:30;;;;;;;;;;;;;;;18.10;72.26;102013.28;20876337;28;20081;-62
2023/09/13 17:09:52;;;;;;;;;;;;;;;17.85;71.28;102013.47;20865450;28;19972;-62
2023/09/13 17:20:14;;;;;;;;;;;;;;;17.72;71.83;102042.81;20868628;28;19924;-62
2023/09/13 17:30:36;;;;;;;;;;;;;;;17.45;72.42;102064.81;20860114;28;19925;-61
2023/09/13 17:40:57;;;;;;;;;;;;;;;17.25;71.83;102072.59;20847018;28;19961;-62
2023/09/13 17:51:23;;;;;;;;;;;;;;;17.01;74.07;102088.25;20821213;28;19929;-62
2023/09/13 18:01:45;;;;;;;;;;;;;;;16.86;76.05;102090.59;20850731;28;20380;-62
2023/09/13 18:12:07;;;;;;;;;;;;;;;16.74;75.70;102091.88;20867054;28;19986;-61
2023/09/13 18:22:28;;;;;;;;;;;;;;;16.61;76.16;102105.44;20844560;28;19929;-62
2023/09/13 18:32:50;;;;;;;;;;;;;;;16.46;74.74;102125.06;20844951;28;20061;-61
2023/09/13 18:43:11;;;;;;;;;;;;;;;16.27;75.11;102131.78;20847948;28;19925;-62
2023/09/13 18:53:33;;;;;;;10.48;1.80;;;;;;;16.10;76.19;102136.69;20838632;28;19940;-60
2023/09/13 19:03:55;;;;;;;9.32;2.15;;;;;;;16.00;78.86;102148.34;20845594;28;20044;-61
2023/09/13 19:14:17;;;;;;;8.70;2.08;;;;;;;15.93;78.33;102159.88;20846246;28;20135;-62
2023/09/13 19:24:39;;;;;;;14.77;2.00;;;;;;;15.72;77.85;102173.56;20845621;28;20457;-61
2023/09/13 19:35:16;;;;;;;9.25;1.80;;;;;;;15.61;77.38;102178.25;20854337;28;20098;-61
2023/09/13 19:45:38;;;;;;;11.07;1.52;;;;;;;15.49;78.36;102196.88;20841877;28;20041;-62
2023/09/13 19:56:03;;;;;;;12.00;1.95;;;;;;;15.37;78.51;102191.94;20866078;28;20611;-63
2023/09/13 20:06:27;;;;;;;9.03;2.00;;;;;;;15.58;79.65;102196.63;20836514;28;24454;-61
2023/09/13 20:16:49;;;;;;;7.60;1.93;;;;;;;15.59;79.00;102203.53;20811762;28;24536;-62
2023/09/13 20:27:11;;;;;;;6.63;1.98;;;;;;;15.18;79.07;102216.84;20846861;28;20052;-61
2023/09/13 20:37:33;;;;;;;9.05;1.77;;;;;;;15.04;80.43;102210.22;20836061;28;20133;-61
2023/09/13 20:47:54;;;;;;;6.82;1.80;;;;;;;14.91;80.22;102224.47;20829010;28;20095;-62
2023/09/13 20:58:16;;;;;;;8.63;1.90;;;;;;;14.82;80.46;102229.91;20846092;28;20063;-63
2023/09/13 21:08:38;;;;;;;7.88;2.00;;;;;;;14.66;80.32;102225.13;20840554;28;20126;-62
2023/09/13 21:19:03;;;;;;;10.88;1.90;;;;;;;14.52;80.56;102220.22;20861692;28;20056;-61
2023/09/13 21:29:24;;;;;;;6.18;1.60;;;;;;;14.38;80.35;102235.34;20849081;28;20555;-61
2023/09/13 21:39:46;;;;;;;7.00;1.53;;;;;;;14.24;80.87;102241.72;20868414;28;20169;-61
2023/09/13 21:50:08;;;;;;;;;;;;;;;14.01;81.13;102244.81;20872812;28;19956;-62
2023/09/13 22:00:29;;;;;;;;;;;;;;;14.01;81.26;102252.63;20851348;28;19928;-61
2023/09/13 22:11:06;;;;;;;;;;;;;;;13.93;81.06;102260.63;20838715;28;19925;-61
2023/09/13 22:21:27;;;;;;;;;;;;;;;13.98;81.49;102248.34;20818148;28;19925;-62
2023/09/13 22:31:50;;;;;;;;;;;;;;;13.91;82.15;102271.94;20850896;28;19939;-62
2023/09/13 22:42:12;;;;;;;;;;;;;;;13.86;82.57;102266.81;20849889;28;19971;-60
2023/09/13 22:52:33;;;;;;;;;;;;;;;13.78;82.23;102278.28;20833528;28;19956;-63
2023/09/13 23:02:55;;;;;;;;;;;;;;;13.63;82.95;102270.75;20847420;28;19931;-63
2023/09/13 23:13:17;;;;;;;;;;;;;;;13.61;84.76;102272.53;20842260;28;20636;-62
2023/09/13 23:23:39;;;;;;;;;;;;;;;13.59;83.59;102277.75;20851265;28;19933;-64
2023/09/13 23:34:01;;;;;;;;;;;;;;;13.58;83.33;102277.81;20853389;28;20297;-62
2023/09/13 23:44:22;;;;;;;;;;;;;;;13.55;85.37;102270.06;20858919;28;19929;-62
2023/09/13 23:54:44;;;;;;;;;;;;;;;13.48;83.88;102276.28;20855586;28;20440;-64
